Time;durP1;ratioP1;P1;durP2;ratioP2;P2;SDS_P1;SDS_P2;PMS_P1;PMS_P2;Temp;Humidity;BMP_temperature;BMP_pressure;BME280_temperature;BME280_humidity;BME280_pressure;Samples;Min_cycle;Max_cycle;Signal;HPM_P1;HPM_P2
2022/03/06 00:00:13;;;;;;;34.22;21.80;;;;;;;2.91;70.56;102207.56;5295357;28;20044;-70
2022/03/06 00:02:44;;;;;;;35.55;20.95;;;;;;;2.92;70.03;102215.28;5294770;28;20028;-70
2022/03/06 00:05:16;;;;;;;30.98;20.48;;;;;;;2.86;71.47;102212.03;5295889;28;20020;-70
2022/03/06 00:07:47;;;;;;;33.53;20.10;;;;;;;2.85;69.75;102213.78;5295589;28;20028;-70
2022/03/06 00:10:19;;;;;;;32.78;21.77;;;;;;;2.78;70.39;102214.84;5296164;28;20020;-70
2022/03/06 00:12:50;;;;;;;30.92;20.40;;;;;;;2.78;69.97;102209.69;5295413;28;20055;-69
2022/03/06 00:15:22;;;;;;;33.35;21.58;;;;;;;2.80;72.22;102209.63;5295053;28;20031;-69
2022/03/06 00:17:55;;;;;;;34.83;20.50;;;;;;;2.81;71.17;102206.16;5294983;28;20569;-69
2022/03/06 00:20:26;;;;;;;30.75;20.33;;;;;;;2.70;71.21;102213.41;5294514;28;20028;-69
2022/03/06 00:22:58;;;;;;;33.90;20.95;;;;;;;2.66;71.54;102215.22;5295216;28;20027;-71
2022/03/06 00:25:29;;;;;;;33.38;20.60;;;;;;;2.65;71.52;102216.97;5297796;28;20276;-69
2022/03/06 00:28:01;;;;;;;32.95;20.90;;;;;;;2.61;70.95;102215.38;5299232;28;20032;-70
2022/03/06 00:30:32;;;;;;;33.10;21.20;;;;;;;2.56;71.46;102217.22;5300114;28;20032;-69
2022/03/06 00:33:06;;;;;;;34.58;20.92;;;;;;;2.59;72.30;102224.91;5298592;28;20668;-69
2022/03/06 00:35:37;;;;;;;35.53;20.80;;;;;;;2.52;71.50;102225.97;5297586;28;20385;-68
2022/03/06 00:38:09;;;;;;;32.78;21.23;;;;;;;2.52;71.59;102223.38;5299456;28;20035;-69
2022/03/06 00:40:42;;;;;;;30.17;20.42;;;;;;;2.47;71.56;102233.03;5299816;28;20020;-69
2022/03/06 00:43:15;;;;;;;31.58;19.73;;;;;;;2.41;72.24;102223.69;5298837;28;20035;-68
2022/03/06 00:45:46;;;;;;;;;;;;;;;2.90;69.18;102229.16;5300529;28;20023;-69
2022/03/06 00:48:18;;;;;;;31.02;19.60;;;;;;;2.42;70.91;102246.09;5298814;28;19916;-68
2022/03/06 00:50:49;;;;;;;33.17;21.25;;;;;;;2.49;73.46;102244.16;5299593;28;20032;-69
2022/03/06 00:53:21;;;;;;;32.95;19.45;;;;;;;2.46;70.35;102253.75;5298767;28;20374;-70
2022/03/06 00:55:52;;;;;;;34.45;20.98;;;;;;;2.40;71.22;102260.81;5280990;28;20441;-70
2022/03/06 00:58:24;;;;;;;32.58;20.90;;;;;;;2.39;71.10;102250.50;5299387;28;20032;-70
2022/03/06 01:00:55;;;;;;;33.65;20.77;;;;;;;2.35;71.61;102239.41;5298939;28;20032;-68
2022/03/06 01:03:27;;;;;;;32.25;21.27;;;;;;;2.38;72.82;102249.63;5299684;28;20030;-68
2022/03/06 01:05:59;;;;;;;29.63;20.10;;;;;;;2.29;72.49;102243.88;5299255;28;20455;-69
2022/03/06 01:08:30;;;;;;;30.33;20.13;;;;;;;2.29;71.06;102255.06;5298415;28;20130;-69
2022/03/06 01:11:02;;;;;;;32.28;19.90;;;;;;;2.21;71.32;102248.44;5299964;28;20022;-69
2022/03/06 01:13:33;;;;;;;31.23;20.70;;;;;;;2.23;73.16;102255.22;5298680;28;20039;-68
2022/03/06 01:16:04;;;;;;;31.58;20.73;;;;;;;2.26;72.86;102259.47;5300027;28;20081;-70
2022/03/06 01:18:36;;;;;;;32.83;21.05;;;;;;;2.16;72.17;102258.91;5298868;28;20030;-69
2022/03/06 01:21:07;;;;;;;31.83;20.35;;;;;;;2.07;72.48;102262.56;5299065;28;20031;-69
2022/03/06 01:23:39;;;;;;;33.60;20.77;;;;;;;2.03;72.25;102258.34;5298795;28;20062;-68
2022/03/06 01:26:10;;;;;;;33.90;21.50;;;;;;;2.02;72.33;102264.44;5277277;28;20031;-69
2022/03/06 01:28:41;;;;;;;32.17;20.65;;;;;;;1.98;72.02;102260.22;5300016;28;20112;-68
2022/03/06 01:31:13;;;;;;;33.88;20.05;;;;;;;1.94;72.61;102256.03;5299477;28;20392;-69
2022/03/06 01:33:44;;;;;;;32.95;21.40;;;;;;;1.98;73.19;102262.81;5298726;28;20912;-68
2022/03/06 01:36:15;;;;;;;32.08;20.35;;;;;;;1.93;73.20;102273.28;5296753;28;20118;-69
2022/03/06 01:38:46;;;;;;;33.90;20.98;;;;;;;1.88;73.66;102274.25;5280681;28;20119;-69
2022/03/06 01:41:18;;;;;;;33.75;20.88;;;;;;;1.87;72.64;102267.41;5299886;28;20485;-69
2022/03/06 01:43:49;;;;;;;29.92;19.80;;;;;;;1.87;73.47;102268.25;5298389;28;20107;-68
2022/03/06 01:46:20;;;;;;;30.60;19.55;;;;;;;1.80;73.47;102273.63;5280141;28;20396;-68
2022/03/06 01:48:52;;;;;;;35.75;20.02;;;;;;;1.76;73.34;102270.25;5297934;28;20051;-68
2022/03/06 01:51:23;;;;;;;34.40;20.00;;;;;;;1.79;73.73;102275.34;5297718;28;20125;-69
2022/03/06 01:53:54;;;;;;;31.65;20.30;;;;;;;1.79;74.27;102280.53;5298248;28;20060;-69
2022/03/06 01:56:26;;;;;;;32.92;20.90;;;;;;;1.74;73.87;102281.50;5279950;28;20553;-69
2022/03/06 01:58:58;;;;;;;34.28;21.77;;;;;;;1.64;74.63;102261.09;5298798;28;20062;-69
2022/03/06 02:01:30;;;;;;;31.80;19.60;;;;;;;1.69;74.05;102272.13;5297344;28;20055;-68
2022/03/06 02:04:02;;;;;;;31.73;20.13;;;;;;;1.61;74.29;102270.63;5279975;28;20054;-69
2022/03/06 02:06:34;;;;;;;29.20;19.42;;;;;;;1.63;75.42;102274.91;5279243;28;20177;-69
2022/03/06 02:09:06;;;;;;;33.03;20.77;;;;;;;1.60;74.85;102272.38;5278814;28;20020;-70
2022/03/06 02:11:39;;;;;;;34.53;20.55;;;;;;;1.66;75.03;102279.13;5298505;28;20030;-68
2022/03/06 02:14:10;;;;;;;;;;;;;;;2.05;72.51;102276.44;5298829;28;20067;-68
2022/03/06 02:16:42;;;;;;;30.02;18.30;;;;;;;1.65;74.85;102278.28;5298840;28;20012;-69
2022/03/06 02:19:16;;;;;;;31.20;19.92;;;;;;;1.61;76.02;102276.66;5297130;28;20389;-69
2022/03/06 02:21:48;;;;;;;28.95;18.48;;;;;;;1.53;75.55;102275.16;5279177;28;20028;-69
2022/03/06 02:24:19;;;;;;;31.23;20.48;;;;;;;1.50;76.45;102278.66;5297772;28;20073;-68
2022/03/06 02:26:50;;;;;;;33.17;19.77;;;;;;;1.56;76.24;102282.84;5297862;28;20252;-68
2022/03/06 02:29:21;;;;;;;34.22;19.67;;;;;;;1.50;75.82;102276.06;5296216;28;20100;-67
2022/03/06 02:31:53;;;;;;;32.67;20.70;;;;;;;1.43;75.77;102277.94;5297563;28;20031;-69
2022/03/06 02:34:24;;;;;;;33.10;21.27;;;;;;;1.47;76.51;102283.88;5278705;28;20024;-69
2022/03/06 02:37:00;;;;;;;34.13;21.05;;;;;;;1.40;76.38;102290.06;5297215;28;20118;-68
2022/03/06 02:39:31;;;;;;;33.13;20.27;;;;;;;1.33;77.16;102289.38;5297009;28;20036;-70
2022/03/06 02:42:03;;;;;;;29.98;19.05;;;;;;;1.39;76.68;102289.22;5296353;28;20039;-70
2022/03/06 02:44:34;;;;;;;32.40;19.90;;;;;;;1.35;77.67;102295.34;5295849;28;20077;-70
2022/03/06 02:47:06;;;;;;;30.25;19.67;;;;;;;1.35;77.90;102294.50;5296876;28;20036;-70
2022/03/06 02:49:37;;;;;;;29.58;19.52;;;;;;;1.35;78.38;102297.09;5297129;28;20138;-67
2022/03/06 02:52:09;;;;;;;30.50;20.33;;;;;;;1.28;77.31;102292.94;5279249;28;20531;-70
2022/03/06 02:54:41;;;;;;;28.25;17.90;;;;;;;1.28;77.24;102292.94;5295825;28;20016;-68
2022/03/06 02:57:13;;;;;;;31.30;20.33;;;;;;;1.21;77.93;102294.81;5296512;28;20098;-69
2022/03/06 02:59:44;;;;;;;29.85;17.80;;;;;;;1.26;77.76;102289.56;5297480;28;20024;-70
2022/03/06 03:02:16;;;;;;;29.48;18.67;;;;;;;1.23;78.32;102294.78;5295034;28;20118;-70
2022/03/06 03:04:47;;;;;;;29.92;18.98;;;;;;;1.21;78.75;102297.38;5296086;28;20016;-69
2022/03/06 03:07:18;;;;;;;31.70;19.42;;;;;;;1.20;78.73;102304.28;5297016;28;20096;-70
2022/03/06 03:09:50;;;;;;;30.15;19.10;;;;;;;1.18;78.84;102305.22;5298428;28;20028;-70
2022/03/06 03:12:21;;;;;;;30.08;18.95;;;;;;;1.22;80.32;102304.28;5297218;28;20507;-70
2022/03/06 03:14:52;;;;;;;29.92;18.65;;;;;;;1.23;80.93;102299.94;5296847;28;20024;-70
2022/03/06 03:17:24;;;;;;;29.35;19.33;;;;;;;1.15;79.75;102303.53;5297247;28;20555;-70
2022/03/06 03:19:55;;;;;;;26.55;17.13;;;;;;;1.17;80.33;102306.94;5297419;28;20012;-68
2022/03/06 03:22:26;;;;;;;30.02;18.08;;;;;;;1.14;80.01;102306.19;5296502;28;20530;-69
2022/03/06 03:24:57;;;;;;;29.20;18.38;;;;;;;1.08;79.39;102301.97;5296979;28;20616;-70
2022/03/06 03:27:29;;;;;;;28.00;18.67;;;;;;;1.09;80.15;102307.97;5296411;28;20032;-71
2022/03/06 03:30:01;;;;;;;29.45;19.75;;;;;;;1.01;79.87;102310.72;5295699;28;20040;-71
2022/03/06 03:32:32;;;;;;;28.70;18.50;;;;;;;0.95;80.51;102300.56;5296968;28;20435;-70
2022/03/06 03:35:04;;;;;;;30.98;19.17;;;;;;;0.96;82.17;102297.94;5297816;28;20020;-70
2022/03/06 03:37:35;;;;;;;29.83;18.67;;;;;;;0.84;81.15;102292.19;5296386;28;20032;-70
2022/03/06 03:40:08;;;;;;;28.92;19.42;;;;;;;0.80;81.38;102293.16;5295532;28;20032;-70
2022/03/06 03:42:39;;;;;;;30.63;19.63;;;;;;;0.83;81.31;102306.81;5295645;28;20028;-69
2022/03/06 03:45:10;;;;;;;30.90;18.77;;;;;;;0.81;82.28;102298.25;5295970;28;20384;-71
2022/03/06 03:47:42;;;;;;;29.58;18.33;;;;;;;0.79;82.30;102300.00;5276605;28;20019;-71
2022/03/06 03:50:13;;;;;;;28.75;18.88;;;;;;;0.76;82.03;102299.22;5295959;28;20077;-70
2022/03/06 03:52:45;;;;;;;29.75;18.25;;;;;;;0.72;83.47;102293.31;5296266;28;20107;-70
2022/03/06 03:55:16;;;;;;;28.67;18.80;;;;;;;0.73;82.30;102303.56;5297402;28;20024;-71
2022/03/06 03:57:47;;;;;;;30.15;19.13;;;;;;;0.70;82.42;102302.78;5295322;28;20028;-71
2022/03/06 04:00:18;;;;;;;29.35;18.60;;;;;;;0.76;83.67;102310.41;5296614;28;20054;-70
2022/03/06 04:02:50;;;;;;;29.92;18.83;;;;;;;0.67;83.23;102306.28;5295885;28;20472;-69
2022/03/06 04:05:21;;;;;;;31.40;19.42;;;;;;;0.66;82.53;102316.63;5295592;28;20310;-70
2022/03/06 04:07:53;;;;;;;29.65;18.10;;;;;;;0.64;83.46;102321.78;5295986;28;20016;-69
2022/03/06 04:10:25;;;;;;;26.93;18.40;;;;;;;0.66;84.29;102314.06;5296782;28;20035;-71
2022/03/06 04:12:56;;;;;;;27.98;18.88;;;;;;;0.56;83.50;102315.94;5295584;28;20036;-70
2022/03/06 04:15:27;;;;;;;28.40;18.90;;;;;;;0.58;84.22;102324.53;5296553;28;20024;-70
2022/03/06 04:17:59;;;;;;;30.90;20.02;;;;;;;0.58;85.22;102332.25;5295312;28;20023;-68
2022/03/06 04:20:30;;;;;;;27.80;17.45;;;;;;;0.60;84.14;102337.38;5297369;28;20116;-70
2022/03/06 04:23:02;;;;;;;26.42;18.25;;;;;;;0.55;84.27;102332.31;5295976;28;20477;-69
2022/03/06 04:25:34;;;;;;;27.15;17.90;;;;;;;0.54;84.89;102348.66;5295744;28;20020;-71
2022/03/06 04:28:05;;;;;;;27.73;19.02;;;;;;;0.50;84.91;102348.75;5294767;28;20020;-71
2022/03/06 04:30:37;;;;;;;31.02;18.70;;;;;;;0.48;85.64;102347.03;5295323;28;20036;-71
2022/03/06 04:33:08;;;;;;;30.85;19.02;;;;;;;0.52;85.06;102350.41;5294837;28;20047;-70
2022/03/06 04:35:39;;;;;;;28.25;18.30;;;;;;;0.48;85.78;102348.78;5295466;28;20052;-69
2022/03/06 04:38:11;;;;;;;27.70;18.02;;;;;;;0.47;85.32;102347.06;5294425;28;20115;-71
2022/03/06 04:40:42;;;;;;;27.20;17.88;;;;;;;0.42;85.11;102342.00;5295130;28;20112;-70
2022/03/06 04:43:13;;;;;;;26.33;17.60;;;;;;;0.46;85.34;102353.13;5295340;28;20050;-70
2022/03/06 04:45:44;;;;;;;29.23;18.30;;;;;;;0.41;84.93;102354.91;5295867;28;20024;-69
2022/03/06 04:48:16;;;;;;;26.55;17.58;;;;;;;0.39;84.31;102356.69;5294218;28;20035;-70
2022/03/06 04:50:47;;;;;;;26.23;17.08;;;;;;;0.38;84.63;102360.13;5295901;28;20051;-69
2022/03/06 04:53:19;;;;;;;27.88;17.95;;;;;;;0.35;84.85;102366.19;5295517;28;20328;-70
2022/03/06 04:55:50;;;;;;;26.58;18.88;;;;;;;0.31;84.71;102361.13;5296906;28;20027;-70
2022/03/06 04:58:21;;;;;;;23.95;17.45;;;;;;;0.33;85.42;102365.38;5294553;28;20028;-71
2022/03/06 05:00:52;;;;;;;24.40;17.42;;;;;;;0.30;85.24;102375.72;5275423;28;20024;-70
2022/03/06 05:03:24;;;;;;;30.17;18.40;;;;;;;0.32;85.73;102386.03;5294388;28;20027;-71
2022/03/06 05:05:55;;;;;;;24.45;17.35;;;;;;;0.31;86.09;102387.75;5294158;28;20020;-69
2022/03/06 05:08:28;;;;;;;26.05;17.35;;;;;;;0.33;87.36;102380.84;5295107;28;20031;-71
2022/03/06 05:10:59;;;;;;;24.17;17.57;;;;;;;0.34;85.79;102379.09;5297713;28;20392;-68
2022/03/06 05:13:30;;;;;;;28.63;18.20;;;;;;;0.29;85.55;102386.06;5298925;28;20016;-69
2022/03/06 05:16:02;;;;;;;27.77;17.27;;;;;;;0.27;85.36;102387.84;5298706;28;20061;-69
2022/03/06 05:18:33;;;;;;;24.50;18.10;;;;;;;0.24;86.20;102388.75;5299236;28;20093;-70
2022/03/06 05:21:04;;;;;;;23.15;17.27;;;;;;;0.26;85.96;102394.69;5298986;28;20452;-68
2022/03/06 05:23:37;;;;;;;26.70;17.73;;;;;;;0.21;85.58;102381.03;5298440;28;20609;-69
2022/03/06 05:26:08;;;;;;;24.33;17.75;;;;;;;0.22;85.64;102399.06;5299135;28;20024;-69
2022/03/06 05:28:41;;;;;;;24.88;17.15;;;;;;;0.23;86.02;102394.78;5299301;28;20086;-69
2022/03/06 05:31:12;;;;;;;25.60;17.73;;;;;;;0.25;86.46;102403.31;5298260;28;20110;-70
2022/03/06 05:33:43;;;;;;;27.60;17.73;;;;;;;0.20;86.47;102395.66;5298217;28;20028;-70
2022/03/06 05:36:15;;;;;;;23.33;16.65;;;;;;;0.19;85.81;102395.66;5299268;28;20275;-70
2022/03/06 05:38:46;;;;;;;23.77;17.33;;;;;;;0.19;86.58;102401.72;5297940;28;20027;-70
2022/03/06 05:41:17;;;;;;;26.98;17.95;;;;;;;0.17;86.66;102408.59;5297942;28;20031;-70
2022/03/06 05:43:48;;;;;;;27.63;17.45;;;;;;;0.13;86.58;102409.53;5299132;28;20020;-70
2022/03/06 05:46:20;;;;;;;23.65;16.60;;;;;;;0.14;86.75;102403.50;5298266;28;20031;-70
2022/03/06 05:48:51;;;;;;;25.02;16.52;;;;;;;0.14;86.16;102408.63;5298642;28;20471;-70
2022/03/06 05:51:22;;;;;;;23.80;17.58;;;;;;;0.13;87.26;102416.41;5297655;28;20039;-70
2022/03/06 05:53:53;;;;;;;25.42;17.15;;;;;;;0.14;86.87;102416.38;5298500;28;20023;-71
2022/03/06 05:56:25;;;;;;;26.02;17.38;;;;;;;0.09;86.13;102415.59;5298214;28;20500;-70
2022/03/06 05:58:56;;;;;;;24.83;17.88;;;;;;;0.07;86.36;102425.06;5298196;28;20493;-70
2022/03/06 06:01:29;;;;;;;22.98;16.50;;;;;;;0.07;86.19;102417.34;5298047;28;20024;-71
2022/03/06 06:04:01;;;;;;;24.27;16.67;;;;;;;0.05;86.51;102413.97;5298824;28;20397;-70
2022/03/06 06:06:32;;;;;;;24.90;17.20;;;;;;;0.05;86.56;102420.84;5298655;28;20074;-69
2022/03/06 06:09:04;;;;;;;23.23;15.98;;;;;;;0.07;85.80;102431.97;5297610;28;20327;-70
2022/03/06 06:11:35;;;;;;;28.00;17.58;;;;;;;0.03;86.98;102432.88;5298254;28;20028;-70
2022/03/06 06:14:06;;;;;;;25.55;17.08;;;;;;;0.05;86.63;102429.41;5298957;28;20058;-71
2022/03/06 06:16:37;;;;;;;22.58;16.73;;;;;;;0.02;86.07;102437.19;5297041;28;20024;-70
2022/03/06 06:19:10;;;;;;;22.10;16.73;;;;;;;-0.02;85.97;102438.09;5298132;28;20063;-69
2022/03/06 06:21:43;;;;;;;26.55;18.00;;;;;;;0.01;87.27;102448.38;5297643;28;20024;-71
2022/03/06 06:24:15;;;;;;;23.27;16.73;;;;;;;0.02;87.54;102452.66;5297395;28;20099;-70
2022/03/06 06:26:47;;;;;;;21.73;15.73;;;;;;;-0.01;85.94;102450.09;5297608;28;20027;-70
2022/03/06 06:29:18;;;;;;;24.45;18.02;;;;;;;-0.04;87.41;102447.56;5298662;28;20031;-70
2022/03/06 06:31:51;;;;;;;24.15;18.17;;;;;;;0.02;87.60;102452.66;5297386;28;20040;-72
2022/03/06 06:34:22;;;;;;;24.65;17.50;;;;;;;-0.01;85.82;102450.09;5296715;28;20024;-70
2022/03/06 06:36:57;;;;;;;22.38;16.70;;;;;;;-0.01;86.30;102453.53;5298847;28;20554;-71
2022/03/06 06:39:29;;;;;;;25.20;17.58;;;;;;;-0.02;86.13;102457.00;5298417;28;20032;-69
2022/03/06 06:42:01;;;;;;;22.80;16.63;;;;;;;0.02;86.38;102467.25;5296950;28;20453;-71
2022/03/06 06:44:32;;;;;;;25.15;16.90;;;;;;;0.02;86.91;102449.22;5278421;28;20028;-69
2022/03/06 06:47:04;;;;;;;23.50;16.55;;;;;;;-0.01;85.92;102453.53;5297688;28;20070;-70
2022/03/06 06:49:35;;;;;;;22.23;16.80;;;;;;;0.07;87.05;102458.56;5297818;28;20496;-70
2022/03/06 06:52:07;;;;;;;23.98;16.38;;;;;;;0.04;86.18;102471.53;5296118;28;20109;-71
2022/03/06 06:54:38;;;;;;;24.33;17.13;;;;;;;0.05;85.94;102467.22;5297109;28;20482;-69
2022/03/06 06:57:09;;;;;;;23.30;17.70;;;;;;;0.03;86.43;102474.94;5298065;28;20023;-69
2022/03/06 06:59:41;;;;;;;24.25;17.13;;;;;;;0.10;86.98;102474.00;5297778;28;20483;-69
2022/03/06 07:02:12;;;;;;;23.30;17.88;;;;;;;0.08;86.26;102464.59;5296738;28;20036;-69
2022/03/06 07:04:43;;;;;;;24.52;17.17;;;;;;;0.12;86.54;102480.00;5297138;28;20050;-70
2022/03/06 07:07:15;;;;;;;23.60;17.38;;;;;;;0.15;86.21;102482.53;5296663;28;20023;-70
2022/03/06 07:09:46;;;;;;;25.58;17.85;;;;;;;0.18;87.02;102484.19;5297330;28;20058;-70
2022/03/06 07:12:17;;;;;;;22.98;16.88;;;;;;;0.15;86.17;102498.00;5297754;28;20049;-69
2022/03/06 07:14:48;;;;;;;24.38;17.88;;;;;;;0.18;86.19;102497.91;5297469;28;20028;-71
2022/03/06 07:17:20;;;;;;;26.08;17.15;;;;;;;0.27;86.22;102490.94;5296836;28;20024;-70
2022/03/06 07:19:51;;;;;;;24.13;17.33;;;;;;;0.15;85.34;102479.06;5297259;28;20028;-69
2022/03/06 07:22:22;;;;;;;26.17;16.77;;;;;;;0.24;85.90;102487.53;5297424;28;20024;-71
2022/03/06 07:24:53;;;;;;;22.83;17.73;;;;;;;0.31;84.99;102497.75;5297905;28;20051;-70
2022/03/06 07:27:25;;;;;;;23.85;17.58;;;;;;;0.32;85.64;102494.28;5296691;28;20639;-70
2022/03/06 07:29:56;;;;;;;23.35;17.30;;;;;;;0.33;86.13;102496.84;5296288;28;20526;-70
2022/03/06 07:32:28;;;;;;;23.42;17.77;;;;;;;0.37;86.08;102503.66;5296395;28;20041;-69
2022/03/06 07:34:59;;;;;;;21.90;17.83;;;;;;;0.42;85.85;102504.44;5296292;28;20046;-70
2022/03/06 07:37:30;;;;;;;21.70;16.73;;;;;;;0.47;84.86;102512.94;5296635;28;20880;-69
2022/03/06 07:40:02;;;;;;;23.40;17.45;;;;;;;0.51;85.94;102512.91;5296299;28;20580;-70
2022/03/06 07:42:33;;;;;;;23.55;16.95;;;;;;;0.52;85.40;102518.03;5296557;28;20065;-71
2022/03/06 07:45:06;;;;;;;22.58;17.52;;;;;;;0.55;85.06;102527.44;5296414;28;20032;-69
2022/03/06 07:47:38;;;;;;;24.30;17.50;;;;;;;0.59;85.13;102527.38;5295966;28;20077;-71
2022/03/06 07:50:11;;;;;;;25.35;16.98;;;;;;;0.65;84.68;102534.16;5297158;28;20473;-71
2022/03/06 07:52:43;;;;;;;20.55;16.45;;;;;;;0.67;84.45;102530.66;5296671;28;20047;-71
2022/03/06 07:55:15;;;;;;;22.38;16.70;;;;;;;0.70;83.97;102524.63;5277991;28;20097;-70
2022/03/06 07:57:47;;;;;;;23.02;17.40;;;;;;;0.78;84.93;102539.97;5296322;28;20032;-69
2022/03/06 08:00:18;;;;;;;22.17;16.92;;;;;;;0.83;83.54;102541.56;5296584;28;20477;-70
2022/03/06 08:02:49;;;;;;;22.58;16.77;;;;;;;0.86;83.88;102553.59;5294989;28;20028;-70
2022/03/06 08:05:21;;;;;;;24.13;17.33;;;;;;;0.83;84.05;102543.31;5296283;28;20046;-71
2022/03/06 08:07:52;;;;;;;21.52;16.60;;;;;;;0.87;83.80;102547.53;5296068;28;20044;-69
2022/03/06 08:10:23;;;;;;;23.80;17.23;;;;;;;0.99;83.43;102556.81;5296604;28;20027;-70
2022/03/06 08:12:55;;;;;;;23.45;17.40;;;;;;;1.05;83.11;102554.13;5294512;28;20081;-71
2022/03/06 08:15:26;;;;;;;22.33;16.00;;;;;;;1.09;83.37;102550.59;5294500;28;20047;-69
2022/03/06 08:17:57;;;;;;;21.50;16.45;;;;;;;1.18;82.46;102561.63;5295882;28;20762;-70
2022/03/06 08:20:28;;;;;;;21.55;16.45;;;;;;;1.24;82.68;102560.66;5295055;28;20043;-71
2022/03/06 08:23:01;;;;;;;21.83;17.60;;;;;;;1.30;82.69;102562.28;5295664;28;20028;-71
2022/03/06 08:25:32;;;;;;;21.55;16.13;;;;;;;1.36;81.48;102562.16;5295757;28;20078;-71
2022/03/06 08:28:03;;;;;;;23.13;16.48;;;;;;;1.40;81.80;102566.38;5295784;28;20024;-69
2022/03/06 08:30:35;;;;;;;23.05;16.20;;;;;;;1.44;81.62;102565.47;5295151;28;20024;-71
2022/03/06 08:33:06;;;;;;;23.52;17.10;;;;;;;1.51;82.32;102569.59;5295668;28;20055;-70
2022/03/06 08:35:37;;;;;;;21.02;16.33;;;;;;;1.59;81.60;102564.28;5295812;28;20016;-70
2022/03/06 08:38:09;;;;;;;20.08;16.02;;;;;;;1.65;80.91;102565.03;5295152;28;20028;-69
2022/03/06 08:40:40;;;;;;;20.60;16.02;;;;;;;1.70;80.47;102585.59;5295532;28;20040;-71
2022/03/06 08:43:11;;;;;;;21.35;16.98;;;;;;;1.79;80.68;102580.28;5295653;28;20024;-71
2022/03/06 08:45:43;;;;;;;23.02;16.70;;;;;;;1.84;80.51;102578.44;5298265;28;20031;-69
2022/03/06 08:48:14;;;;;;;21.08;16.35;;;;;;;1.92;80.87;102586.03;5298746;28;21480;-70
2022/03/06 08:50:45;;;;;;;19.65;16.20;;;;;;;1.97;79.50;102584.22;5299095;28;20507;-70
2022/03/06 08:53:17;;;;;;;20.80;15.02;;;;;;;2.06;79.34;102584.00;5299917;28;20078;-70
2022/03/06 08:55:49;;;;;;;21.35;15.55;;;;;;;2.13;79.60;102584.72;5300038;28;20074;-69
2022/03/06 08:58:20;;;;;;;20.38;16.08;;;;;;;2.16;79.56;102580.34;5299350;28;20032;-71
2022/03/06 09:00:52;;;;;;;19.48;15.38;;;;;;;2.27;79.38;102584.41;5298765;28;20024;-70
2022/03/06 09:03:23;;;;;;;19.83;15.73;;;;;;;2.33;78.78;102581.69;5299257;28;20078;-71
2022/03/06 09:05:54;;;;;;;22.35;16.02;;;;;;;2.47;79.04;102587.41;5298928;28;20031;-70
2022/03/06 09:08:26;;;;;;;21.38;16.30;;;;;;;2.56;77.75;102574.25;5299419;28;20028;-70
2022/03/06 09:10:57;;;;;;;19.85;14.45;;;;;;;2.62;76.88;102584.47;5299567;28;20034;-70
2022/03/06 09:13:28;;;;;;;19.52;14.90;;;;;;;2.71;77.16;102580.81;5298189;28;20032;-71
2022/03/06 09:16:01;;;;;;;20.10;15.02;;;;;;;2.85;75.78;102596.00;5299183;28;20032;-70
2022/03/06 09:18:32;;;;;;;19.77;15.30;;;;;;;2.97;74.94;102590.53;5299230;28;21013;-70
2022/03/06 09:21:04;;;;;;;18.00;13.90;;;;;;;2.99;74.53;102591.31;5299526;28;20016;-70
2022/03/06 09:23:35;;;;;;;18.73;14.70;;;;;;;3.02;73.82;102580.91;5298027;28;20069;-71
2022/03/06 09:26:06;;;;;;;21.60;14.73;;;;;;;3.13;74.08;102584.06;5298499;28;20508;-70
2022/03/06 09:28:37;;;;;;;19.17;14.90;;;;;;;3.18;73.37;102589.13;5299125;28;20020;-69
2022/03/06 09:31:09;;;;;;;17.88;14.48;;;;;;;3.27;73.31;102588.03;5299196;28;20463;-70
2022/03/06 09:33:40;;;;;;;16.90;14.10;;;;;;;3.30;72.84;102585.38;5298722;28;20024;-70
2022/03/06 09:36:11;;;;;;;17.25;14.52;;;;;;;3.40;71.86;102592.00;5298484;28;20055;-72
2022/03/06 09:38:43;;;;;;;17.58;14.15;;;;;;;3.45;72.25;102581.50;5298503;28;20376;-70
2022/03/06 09:41:24;;;;;;;20.40;14.40;;;;;;;3.60;72.59;102583.72;5297454;28;20019;-71
2022/03/06 09:43:57;;;;;;;18.88;14.77;;;;;;;3.63;71.37;102581.00;5298952;28;20031;-71
2022/03/06 09:46:28;;;;;;;18.93;14.40;;;;;;;3.73;71.62;102566.91;5298225;28;20031;-71
2022/03/06 09:49:02;;;;;;;17.08;13.85;;;;;;;3.83;69.88;102583.91;5297632;28;20052;-70
2022/03/06 09:51:38;;;;;;;19.73;14.48;;;;;;;3.94;69.87;102574.94;5297365;28;20059;-71
2022/03/06 09:54:12;;;;;;;17.70;14.10;;;;;;;4.02;69.70;102573.84;5296493;28;20481;-70
2022/03/06 09:56:44;;;;;;;17.63;14.30;;;;;;;4.17;70.16;102577.72;5297051;28;20306;-70
2022/03/06 09:59:15;;;;;;;19.52;14.45;;;;;;;4.28;69.52;102577.38;5297185;28;20275;-71
2022/03/06 10:01:46;;;;;;;18.23;14.55;;;;;;;4.42;68.60;102577.81;5297420;28;20031;-72
2022/03/06 10:04:24;;;;;;;17.35;14.75;;;;;;;4.57;69.28;102579.91;5298228;28;20008;-71
2022/03/06 10:07:03;;;;;;;16.25;14.07;;;;;;;4.69;69.81;102576.06;5293800;28;20096;-71
2022/03/06 10:10:04;;;;;;;17.90;13.85;;;;;;;4.93;68.90;102576.19;5295681;28;20024;-71
2022/03/06 10:12:35;;;;;;;14.75;12.93;;;;;;;4.73;66.85;102579.41;5267611;28;20036;-71
2022/03/06 10:15:07;;;;;;;16.95;13.15;;;;;;;4.81;65.96;102580.03;5297399;28;20016;-71
2022/03/06 10:17:39;;;;;;;16.02;13.73;;;;;;;4.88;64.74;102577.16;5296277;28;20381;-71
2022/03/06 10:20:11;;;;;;;17.35;13.13;;;;;;;5.00;64.52;102582.84;5297041;28;20027;-71
2022/03/06 10:22:46;;;;;;;17.77;13.70;;;;;;;5.00;64.53;102588.94;5296137;28;20440;-72
2022/03/06 10:25:17;;;;;;;15.40;12.35;;;;;;;5.06;63.87;102593.06;5296052;28;20050;-71
2022/03/06 10:27:49;;;;;;;14.32;11.98;;;;;;;5.20;64.07;102584.81;5297135;28;20024;-71
2022/03/06 10:30:21;;;;;;;16.03;12.07;;;;;;;5.36;63.62;102588.56;5297273;28;20062;-71
2022/03/06 10:32:53;;;;;;;14.33;12.07;;;;;;;5.39;63.17;102588.44;5296584;28;20644;-71
2022/03/06 10:35:31;;;;;;;12.95;11.18;;;;;;;5.44;62.74;102580.47;5295637;28;20032;-71
2022/03/06 10:38:26;;;;;;;16.35;11.85;;;;;;;5.64;62.79;102591.00;5294846;28;20112;-71
2022/03/06 10:41:13;;;;;;;13.93;11.48;;;;;;;5.73;62.76;102589.84;5295893;28;20032;-71
2022/03/06 10:43:44;;;;;;;16.05;11.50;;;;;;;5.71;61.55;102589.03;5295788;28;20046;-71
2022/03/06 10:46:21;;;;;;;13.18;10.82;;;;;;;5.88;61.02;102596.25;5296957;28;20488;-71
2022/03/06 10:48:58;;;;;;;14.48;11.02;;;;;;;5.91;61.80;102586.56;5296597;28;20048;-71
2022/03/06 10:51:37;;;;;;;15.15;11.38;;;;;;;6.01;62.05;102582.72;5295847;28;20020;-71
2022/03/06 10:54:08;;;;;;;14.80;11.57;;;;;;;5.94;61.81;102583.88;5293005;28;20024;-71
2022/03/06 10:56:43;;;;;;;12.82;11.10;;;;;;;6.05;59.77;102583.47;5295677;28;20032;-71
2022/03/06 10:59:18;;;;;;;12.52;10.82;;;;;;;6.18;60.91;102584.72;5296695;28;20107;-71
2022/03/06 11:01:49;;;;;;;11.77;10.27;;;;;;;6.21;59.63;102579.41;5295169;28;20032;-71
2022/03/06 11:04:21;;;;;;;13.35;10.75;;;;;;;6.38;58.79;102580.47;5296260;28;20053;-71
2022/03/06 11:06:53;;;;;;;11.88;10.32;;;;;;;6.39;58.25;102585.63;5296097;28;20117;-72
2022/03/06 11:09:25;;;;;;;11.32;9.88;;;;;;;6.51;58.63;102585.13;5295352;28;21139;-71
2022/03/06 11:11:56;;;;;;;13.50;10.80;;;;;;;6.54;57.25;102581.56;5294006;28;20027;-72
2022/03/06 11:14:30;;;;;;;11.70;9.55;;;;;;;6.64;56.38;102576.84;5290391;28;20450;-71
2022/03/06 11:17:01;;;;;;;;;;;;;;;7.14;55.46;102576.50;5294897;28;20032;-72
2022/03/06 11:19:33;;;;;;;11.55;9.18;;;;;;;6.86;53.99;102562.03;5273344;28;21097;-71
2022/03/06 11:22:18;;;;;;;13.82;9.90;;;;;;;6.92;53.81;102566.97;5294584;28;20028;-72
2022/03/06 11:24:59;;;;;;;13.23;10.20;;;;;;;6.87;53.90;102571.53;5294461;28;20016;-72
2022/03/06 11:27:50;;;;;;;12.40;10.18;;;;;;;6.88;53.29;102568.00;5292847;28;20016;-71
2022/03/06 11:30:22;;;;;;;11.98;9.63;;;;;;;6.81;52.03;102576.97;5295438;28;20040;-71
2022/03/06 11:33:05;;;;;;;12.82;10.07;;;;;;;6.92;51.99;102566.13;5295146;28;20103;-71
2022/03/06 11:35:40;;;;;;;12.00;9.43;;;;;;;7.00;52.47;102562.28;5295790;28;20047;-71
2022/03/06 11:38:15;;;;;;;10.93;9.65;;;;;;;7.12;52.06;102562.66;5294298;28;20110;-71